Time;durP1;ratioP1;P1;durP2;ratioP2;P2;SDS_P1;SDS_P2;PMS_P1;PMS_P2;Temp;Humidity;BMP_temperature;BMP_pressure;BME280_temperature;BME280_humidity;BME280_pressure;Samples;Min_cycle;Max_cycle;Signal;HPM_P1;HPM_P2
2020/12/10 00:00:56;;;;;;;22.50;10.00;;;;;;;3.83;100.00;97397.13;5078887;28;20193;-74
2020/12/10 00:03:24;;;;;;;26.63;11.63;;;;;;;3.72;100.00;97391.41;5085098;28;20201;-75
2020/12/10 00:05:51;;;;;;;27.97;10.80;;;;;;;3.93;100.00;97389.78;5076494;28;20234;-74
2020/12/10 00:08:19;;;;;;;21.70;9.80;;;;;;;3.85;100.00;97391.63;5075737;28;20227;-72
2020/12/10 00:10:46;;;;;;;24.00;10.80;;;;;;;3.86;100.00;97386.19;5058686;28;20185;-75
2020/12/10 00:13:13;;;;;;;27.23;10.40;;;;;;;3.82;100.00;97376.97;5076582;28;20205;-75
2020/12/10 00:15:39;;;;;;;23.07;10.40;;;;;;;3.93;100.00;97381.03;5072000;28;20199;-73
2020/12/10 00:18:06;;;;;;;22.80;10.60;;;;;;;3.63;100.00;97388.00;5065522;28;20230;-73
2020/12/10 00:20:33;;;;;;;26.97;11.23;;;;;;;3.40;100.00;97384.47;5070752;28;20201;-74
2020/12/10 00:23:00;;;;;;;22.93;9.57;;;;;;;3.89;100.00;97375.28;5082854;28;20560;-74
2020/12/10 00:25:27;;;;;;;24.70;11.83;;;;;;;3.88;100.00;97375.47;5090311;28;20223;-74
2020/12/10 00:27:54;;;;;;;28.47;11.57;;;;;;;3.89;100.00;97377.94;5066694;28;20217;-74
2020/12/10 00:30:21;;;;;;;27.63;10.87;;;;;;;3.69;100.00;97374.09;5071631;28;20198;-74
2020/12/10 00:32:48;;;;;;;26.37;11.07;;;;;;;3.75;100.00;97369.94;5076950;28;20221;-74
2020/12/10 00:35:14;;;;;;;24.43;10.93;;;;;;;3.94;100.00;97367.69;5083462;28;20197;-74
2020/12/10 00:37:41;;;;;;;24.37;10.27;;;;;;;4.16;100.00;97358.13;5079477;28;20228;-74
2020/12/10 00:40:10;;;;;;;19.57;9.90;;;;;;;4.13;100.00;97359.31;5078048;28;20205;-74
2020/12/10 00:42:37;;;;;;;23.43;10.57;;;;;;;3.96;100.00;97349.84;5074976;28;20204;-74
2020/12/10 00:45:05;;;;;;;20.17;10.40;;;;;;;3.96;100.00;97352.47;5071813;28;20198;-74
2020/12/10 00:47:31;;;;;;;21.80;9.87;;;;;;;4.10;100.00;97348.25;5072737;28;20224;-74
2020/12/10 00:49:58;;;;;;;23.57;10.60;;;;;;;4.05;100.00;97345.31;5083448;28;20200;-73
2020/12/10 00:52:26;;;;;;;25.20;10.83;;;;;;;4.17;100.00;97343.91;5091367;28;20227;-73
2020/12/10 00:54:52;;;;;;;24.07;10.60;;;;;;;4.10;100.00;97341.16;5083499;28;20624;-75
2020/12/10 00:57:19;;;;;;;27.90;11.87;;;;;;;3.85;100.00;97341.50;5079672;28;20221;-74
2020/12/10 00:59:47;;;;;;;22.50;10.87;;;;;;;4.05;100.00;97343.50;5079191;28;20196;-74
2020/12/10 01:02:14;;;;;;;24.13;11.47;;;;;;;3.75;100.00;97339.09;5083408;28;20196;-74
2020/12/10 01:04:41;;;;;;;24.03;11.10;;;;;;;4.05;100.00;97342.66;5078416;28;20193;-75
2020/12/10 01:07:07;;;;;;;25.50;10.67;;;;;;;4.38;100.00;97336.97;5083384;28;20217;-73
2020/12/10 01:09:34;;;;;;;22.47;10.30;;;;;;;4.09;100.00;97333.41;5079842;28;20204;-73
2020/12/10 01:12:04;;;;;;;25.20;11.17;;;;;;;3.88;100.00;97341.16;5078732;28;20228;-73
2020/12/10 01:14:31;;;;;;;21.20;9.77;;;;;;;4.13;100.00;97348.75;5087620;28;20582;-75
2020/12/10 01:16:58;;;;;;;24.87;11.27;;;;;;;4.21;100.00;97343.38;5078280;28;20232;-75
2020/12/10 01:19:25;;;;;;;24.77;11.27;;;;;;;4.29;100.00;97343.31;5083199;28;20204;-74
2020/12/10 01:21:52;;;;;;;24.77;10.40;;;;;;;3.99;100.00;97344.22;5083377;28;20193;-74
2020/12/10 01:24:18;;;;;;;24.17;11.77;;;;;;;4.05;100.00;97338.22;5078139;28;20284;-73
2020/12/10 01:26:45;;;;;;;24.93;11.10;;;;;;;3.94;100.00;97341.28;5082883;28;20197;-74
2020/12/10 01:29:12;;;;;;;22.50;10.50;;;;;;;3.83;100.00;97339.06;5083008;28;20208;-74
2020/12/10 01:31:39;;;;;;;24.27;10.97;;;;;;;3.50;100.00;97334.97;5085436;28;20249;-74
2020/12/10 01:34:06;;;;;;;21.07;9.77;;;;;;;4.23;100.00;97336.13;5081090;28;20583;-75
2020/12/10 01:36:33;;;;;;;23.93;10.87;;;;;;;4.37;100.00;97330.03;5082608;28;20838;-74
2020/12/10 01:39:00;;;;;;;23.67;10.30;;;;;;;4.13;100.00;97334.69;5088112;28;20205;-74
2020/12/10 01:41:30;;;;;;;25.00;11.83;;;;;;;3.50;100.00;97334.97;5088899;28;20209;-74
2020/12/10 01:44:04;;;;;;;21.80;10.67;;;;;;;3.78;100.00;97325.56;5075117;28;20205;-74
2020/12/10 01:46:31;;;;;;;20.80;10.40;;;;;;;3.34;100.00;97327.13;5083928;28;20203;-74
2020/12/10 01:48:58;;;;;;;20.83;10.27;;;;;;;3.37;100.00;97331.25;5079762;28;20204;-73
2020/12/10 01:51:26;;;;;;;21.00;9.97;;;;;;;3.64;100.00;97317.56;5085456;28;20224;-74
2020/12/10 01:53:53;;;;;;;19.53;9.20;;;;;;;3.73;100.00;97316.53;5082734;28;20193;-74
2020/12/10 01:56:20;;;;;;;24.83;11.50;;;;;;;3.73;100.00;97314.72;5077183;28;20197;-74
2020/12/10 01:58:47;;;;;;;25.67;9.67;;;;;;;3.74;100.00;97311.06;5082033;28;20677;-74
2020/12/10 02:01:13;;;;;;;24.13;10.73;;;;;;;3.86;100.00;97309.66;5086284;28;20201;-74
2020/12/10 02:03:40;;;;;;;20.30;9.10;;;;;;;4.10;100.00;97311.28;5086205;28;20208;-75
2020/12/10 02:06:07;;;;;;;21.00;9.50;;;;;;;3.96;100.00;97307.59;5079905;28;20212;-75
2020/12/10 02:08:35;;;;;;;20.13;9.93;;;;;;;3.62;100.00;97309.00;5075226;28;20236;-74
2020/12/10 02:11:01;;;;;;;24.90;10.77;;;;;;;3.69;100.00;97308.16;5074804;28;20206;-74
2020/12/10 02:13:28;;;;;;;20.43;9.77;;;;;;;4.01;100.00;97309.72;5082062;28;20201;-74
2020/12/10 02:15:55;;;;;;;23.93;11.40;;;;;;;3.66;100.00;97299.75;5085582;28;20688;-74
2020/12/10 02:18:22;;;;;;;20.73;9.63;;;;;;;3.72;100.00;97299.06;5077281;28;20255;-74
2020/12/10 02:20:48;;;;;;;21.77;9.97;;;;;;;4.01;100.00;97299.16;5071552;28;20215;-74
2020/12/10 02:23:16;;;;;;;19.37;10.03;;;;;;;4.31;100.00;97293.78;5085488;28;20196;-74
2020/12/10 02:25:43;;;;;;;20.90;9.30;;;;;;;4.23;100.00;97283.31;5074488;28;20723;-73
2020/12/10 02:28:13;;;;;;;20.70;9.47;;;;;;;4.46;100.00;97284.06;5081806;28;20231;-74
2020/12/10 02:30:40;;;;;;;18.73;9.47;;;;;;;3.96;100.00;97283.03;5084413;28;20202;-73
2020/12/10 02:33:08;;;;;;;18.00;9.27;;;;;;;4.03;100.00;97278.69;5075970;28;20302;-73
2020/12/10 02:35:37;;;;;;;21.27;9.77;;;;;;;4.05;100.00;97277.50;5083020;28;20201;-74
2020/12/10 02:38:06;;;;;;;23.90;9.83;;;;;;;4.09;100.00;97281.44;5082146;28;20225;-73
2020/12/10 02:40:35;;;;;;;22.60;8.93;;;;;;;3.78;100.00;97274.59;5089782;28;20715;-74
2020/12/10 02:43:02;;;;;;;18.20;8.93;;;;;;;4.07;100.00;97269.41;5081775;28;20197;-74
2020/12/10 02:45:29;;;;;;;18.77;8.33;;;;;;;4.21;100.00;97273.91;5082630;28;20208;-74
2020/12/10 02:47:57;;;;;;;22.23;9.90;;;;;;;3.90;100.00;97273.16;5071837;28;20217;-73
2020/12/10 02:50:24;;;;;;;22.27;9.83;;;;;;;4.11;100.00;97266.22;5081801;28;20193;-73
2020/12/10 02:52:51;;;;;;;18.50;9.23;;;;;;;4.02;100.00;97264.66;5085102;28;20225;-74
2020/12/10 02:55:18;;;;;;;20.07;9.93;;;;;;;4.06;100.00;97260.66;5073629;28;20214;-74
2020/12/10 02:57:45;;;;;;;21.87;9.17;;;;;;;4.27;100.00;97257.34;5081113;28;20668;-75
2020/12/10 03:00:12;;;;;;;17.97;8.00;;;;;;;3.86;100.00;97251.59;5077510;28;20237;-74
2020/12/10 03:02:39;;;;;;;20.17;9.27;;;;;;;3.79;100.00;97244.56;5082674;28;20201;-74
2020/12/10 03:05:07;;;;;;;21.87;9.53;;;;;;;3.56;100.00;97239.31;5085985;28;21654;-73
2020/12/10 03:07:34;;;;;;;21.37;10.37;;;;;;;3.94;100.00;97242.78;5080857;28;20765;-74
2020/12/10 03:10:01;;;;;;;21.57;10.30;;;;;;;3.52;100.00;97245.13;5077117;28;20204;-73
2020/12/10 03:12:28;;;;;;;21.63;9.63;;;;;;;3.63;100.00;97242.06;5081487;28;20216;-74
2020/12/10 03:14:55;;;;;;;20.53;9.30;;;;;;;3.56;100.00;97238.50;5085912;28;20208;-74
2020/12/10 03:17:22;;;;;;;23.27;10.50;;;;;;;3.60;100.00;97237.97;5081000;28;20232;-74
2020/12/10 03:19:49;;;;;;;20.00;9.30;;;;;;;3.57;100.00;97233.06;5084772;28;20200;-74
2020/12/10 03:22:16;;;;;;;20.47;9.27;;;;;;;3.74;100.00;97229.28;5080567;28;20201;-74
2020/12/10 03:24:43;;;;;;;21.03;8.97;;;;;;;3.51;100.00;97231.09;5080523;28;20662;-74
2020/12/10 03:27:10;;;;;;;22.03;10.17;;;;;;;4.05;100.00;97222.06;5077668;28;20228;-73
2020/12/10 03:29:36;;;;;;;18.77;9.57;;;;;;;4.02;100.00;97219.78;5084986;28;20200;-75
2020/12/10 03:32:05;;;;;;;23.67;10.47;;;;;;;3.94;100.00;97213.75;5089876;28;20319;-75
2020/12/10 03:34:32;;;;;;;23.77;10.80;;;;;;;3.56;100.00;97207.66;5080004;28;20205;-74
2020/12/10 03:37:02;;;;;;;25.33;10.47;;;;;;;4.25;100.00;97207.34;5083660;28;20217;-74
2020/12/10 03:39:29;;;;;;;27.20;11.37;;;;;;;3.65;100.00;97198.69;5067862;28;20205;-74
2020/12/10 03:41:58;;;;;;;25.73;10.67;;;;;;;3.84;100.00;97200.84;5077667;28;20196;-74
2020/12/10 03:44:25;;;;;;;22.30;10.30;;;;;;;3.87;100.00;97195.19;5083559;28;20227;-74
2020/12/10 03:46:52;;;;;;;22.87;10.20;;;;;;;3.80;100.00;97191.63;5074728;28;20224;-73
2020/12/10 03:49:19;;;;;;;20.47;10.10;;;;;;;4.10;100.00;97195.97;5074743;28;20208;-74
2020/12/10 03:51:46;;;;;;;25.90;11.10;;;;;;;3.71;100.00;97182.13;5083013;28;20224;-74
2020/12/10 03:54:13;;;;;;;21.33;10.33;;;;;;;4.17;100.00;97186.31;5087341;28;20304;-73
2020/12/10 03:56:40;;;;;;;23.77;10.20;;;;;;;4.22;100.00;97181.28;5081122;28;20223;-74
2020/12/10 03:59:07;;;;;;;23.57;9.50;;;;;;;4.17;100.00;97180.22;5080275;28;20212;-74
2020/12/10 04:01:34;;;;;;;23.30;9.80;;;;;;;4.07;100.00;97185.75;5081892;28;20211;-74
2020/12/10 04:04:01;;;;;;;25.33;10.50;;;;;;;4.05;100.00;97184.28;5071097;28;20222;-74
2020/12/10 04:06:29;;;;;;;24.77;10.87;;;;;;;3.87;100.00;97184.63;5075330;28;20197;-74
2020/12/10 04:08:55;;;;;;;26.73;11.43;;;;;;;3.63;100.00;97184.88;5085246;28;20196;-75
2020/12/10 04:11:22;;;;;;;21.00;8.77;;;;;;;4.16;100.00;97179.38;5075172;28;20197;-73
2020/12/10 04:13:49;;;;;;;17.87;8.90;;;;;;;4.22;100.00;97189.22;5065357;28;20287;-74
2020/12/10 04:16:16;;;;;;;23.80;9.77;;;;;;;4.01;100.00;97186.47;5083364;28;20204;-74
2020/12/10 04:18:43;;;;;;;20.23;10.30;;;;;;;3.73;100.00;97184.59;5075102;28;20231;-74
2020/12/10 04:21:13;;;;;;;23.37;10.70;;;;;;;3.87;100.00;97183.81;5085337;28;20207;-74
2020/12/10 04:23:41;;;;;;;22.30;9.73;;;;;;;3.67;100.00;97178.22;5071699;28;20579;-74
2020/12/10 04:26:08;;;;;;;23.40;10.03;;;;;;;4.05;100.00;97164.00;5080239;28;20200;-74
2020/12/10 04:28:34;;;;;;;25.27;11.27;;;;;;;3.89;100.00;97160.69;5085804;28;20224;-73
2020/12/10 04:31:01;;;;;;;23.60;10.73;;;;;;;3.86;100.00;97166.34;5073999;28;20200;-74
2020/12/10 04:33:28;;;;;;;26.47;11.03;;;;;;;4.21;100.00;97163.81;5088167;28;20222;-74
2020/12/10 04:35:55;;;;;;;27.33;11.13;;;;;;;4.14;100.00;97168.19;5078978;28;20200;-74
2020/12/10 04:38:22;;;;;;;25.13;11.17;;;;;;;3.84;100.00;97173.59;5075254;28;20307;-74
2020/12/10 04:40:50;;;;;;;25.43;11.27;;;;;;;3.68;100.00;97171.97;5078976;28;20200;-74
2020/12/10 04:43:18;;;;;;;26.23;10.97;;;;;;;4.05;100.00;97174.56;5075619;28;20204;-74
2020/12/10 04:45:45;;;;;;;22.40;10.77;;;;;;;3.70;100.00;97175.22;5062702;28;20202;-74
2020/12/10 04:48:11;;;;;;;26.00;12.60;;;;;;;3.57;100.00;97167.13;5079530;28;20221;-74
2020/12/10 04:50:39;;;;;;;22.80;10.87;;;;;;;3.46;100.00;97161.44;5082452;28;20200;-74
2020/12/10 04:53:06;;;;;;;23.97;11.77;;;;;;;3.49;100.00;97168.97;5079723;28;20274;-74
2020/12/10 04:55:33;;;;;;;24.67;10.83;;;;;;;3.81;100.00;97158.97;5081377;28;20284;-73
2020/12/10 04:58:01;;;;;;;25.37;11.00;;;;;;;3.56;100.00;97159.38;5085497;28;20215;-73
2020/12/10 05:00:29;;;;;;;27.20;11.40;;;;;;;3.64;100.00;97152.19;5079615;28;20677;-74
2020/12/10 05:02:56;;;;;;;23.70;10.70;;;;;;;3.21;100.00;97160.78;5080972;28;20199;-73
2020/12/10 05:05:24;;;;;;;22.03;10.80;;;;;;;3.74;100.00;97155.41;5085862;28;20201;-74
2020/12/10 05:07:51;;;;;;;27.27;11.87;;;;;;;3.69;100.00;97157.75;5070254;28;20708;-74
2020/12/10 05:10:18;;;;;;;26.30;11.50;;;;;;;3.47;100.00;97152.53;5079061;28;20204;-73
2020/12/10 05:12:45;;;;;;;22.73;10.33;;;;;;;4.00;100.00;97147.88;5086961;28;20204;-74
2020/12/10 05:15:16;;;;;;;27.17;11.07;;;;;;;3.54;100.00;97148.16;5083945;28;20648;-74
2020/12/10 05:17:43;;;;;;;30.27;12.13;;;;;;;3.62;100.00;97150.75;5086505;28;20281;-73
2020/12/10 05:20:10;;;;;;;26.37;11.27;;;;;;;4.05;100.00;97150.81;5089325;28;20200;-74
2020/12/10 05:22:44;;;;;;;25.00;10.67;;;;;;;3.99;100.00;97151.53;5088537;28;20193;-74
2020/12/10 05:25:11;;;;;;;27.63;12.73;;;;;;;4.05;100.00;97147.34;5078270;28;20573;-74
2020/12/10 05:27:38;;;;;;;27.93;12.50;;;;;;;3.83;100.00;97146.44;5093423;28;20229;-74
2020/12/10 05:30:05;;;;;;;32.67;13.40;;;;;;;3.84;100.00;97139.31;5083843;28;20200;-73
2020/12/10 05:32:35;;;;;;;30.40;13.60;;;;;;;3.76;100.00;97140.19;5092654;28;20251;-74
2020/12/10 05:35:20;;;;;;;29.17;12.37;;;;;;;3.81;100.00;97139.69;5084617;28;20211;-74
2020/12/10 05:37:47;;;;;;;31.80;13.70;;;;;;;3.88;100.00;97137.97;5072474;28;20787;-73
2020/12/10 05:40:14;;;;;;;31.50;13.47;;;;;;;4.04;100.00;97135.13;5079120;28;20220;-74
2020/12/10 05:42:42;;;;;;;30.03;13.27;;;;;;;4.31;100.00;97129.25;5088606;28;20203;-73
2020/12/10 05:45:11;;;;;;;34.20;13.93;;;;;;;3.97;100.00;97137.69;5082091;28;20703;-74
2020/12/10 05:47:57;;;;;;;33.47;13.13;;;;;;;3.85;100.00;97140.94;5076304;28;20851;-74
2020/12/10 05:50:25;;;;;;;37.17;13.90;;;;;;;3.65;100.00;97137.22;5076060;28;20205;-74
2020/12/10 05:53:08;;;;;;;35.33;14.10;;;;;;;3.54;100.00;97140.25;5088055;28;20220;-73
2020/12/10 05:55:36;;;;;;;33.00;14.20;;;;;;;4.07;100.00;97140.88;5083036;28;20204;-73
2020/12/10 05:58:04;;;;;;;27.33;12.67;;;;;;;3.99;100.00;97142.78;5076258;28;20225;-73
2020/12/10 06:00:31;;;;;;;34.03;12.93;;;;;;;3.87;100.00;97145.03;5078411;28;20285;-74
2020/12/10 06:03:00;;;;;;;35.17;13.50;;;;;;;3.68;100.00;97139.47;5085720;28;20193;-73
2020/12/10 06:05:27;;;;;;;33.93;13.77;;;;;;;3.51;100.00;97138.00;5081609;28;20230;-73
2020/12/10 06:08:01;;;;;;;34.90;13.50;;;;;;;3.43;100.00;97146.78;5077786;28;20772;-73
2020/12/10 06:10:28;;;;;;;31.43;13.57;;;;;;;3.79;100.00;97142.50;5074659;28;20200;-73
2020/12/10 06:12:55;;;;;;;30.27;13.17;;;;;;;3.62;100.00;97141.03;5089374;28;20664;-74
2020/12/10 06:15:24;;;;;;;28.70;12.43;;;;;;;3.87;100.00;97141.59;5082584;28;20200;-76
2020/12/10 06:18:04;;;;;;;30.40;13.30;;;;;;;3.96;100.00;97133.41;5077695;28;20223;-75
2020/12/10 06:20:39;;;;;;;26.77;13.17;;;;;;;3.87;100.00;97133.69;5084911;28;20192;-77
2020/12/10 06:23:32;;;;;;;32.87;12.73;;;;;;;4.02;100.00;97132.69;5087571;28;20257;-77
2020/12/10 06:26:00;;;;;;;34.30;14.37;;;;;;;3.64;100.00;97125.00;5070834;28;20215;-77
2020/12/10 06:28:27;;;;;;;29.50;13.60;;;;;;;3.75;100.00;97125.38;5089502;28;20225;-77
2020/12/10 06:31:04;;;;;;;30.37;12.43;;;;;;;3.86;100.00;97124.94;5074666;28;20228;-75
2020/12/10 06:33:38;;;;;;;27.33;11.80;;;;;;;3.68;100.00;97128.91;5082599;28;20220;-76
2020/12/10 06:36:18;;;;;;;34.30;13.83;;;;;;;3.89;100.00;97118.47;5079909;28;20201;-74
2020/12/10 06:38:46;;;;;;;32.57;13.27;;;;;;;3.85;100.00;97131.22;5082072;28;20216;-74
2020/12/10 06:41:13;;;;;;;26.33;12.50;;;;;;;3.74;100.00;97128.19;5085698;28;20656;-74
2020/12/10 06:43:40;;;;;;;28.57;12.90;;;;;;;4.01;100.00;97125.75;5090527;28;20284;-76
2020/12/10 06:46:07;;;;;;;29.90;12.87;;;;;;;4.05;100.00;97129.69;5084569;28;20660;-77
2020/12/10 06:48:42;;;;;;;28.43;12.60;;;;;;;3.73;100.00;97132.66;5073448;28;20377;-77
2020/12/10 06:51:13;;;;;;;32.47;14.07;;;;;;;3.59;100.00;97130.81;5070458;28;20210;-77
2020/12/10 06:53:40;;;;;;;28.27;11.63;;;;;;;3.78;100.00;97135.59;5084681;28;20238;-76
2020/12/10 06:56:13;;;;;;;25.03;11.63;;;;;;;3.99;100.00;97129.59;5084924;28;20571;-77
2020/12/10 06:58:48;;;;;;;33.20;13.63;;;;;;;3.98;100.00;97130.59;5073932;28;20307;-77
2020/12/10 07:01:37;;;;;;;27.77;12.60;;;;;;;3.52;100.00;97134.34;5072842;28;20208;-76
2020/12/10 07:04:21;;;;;;;32.30;12.23;;;;;;;3.81;100.00;97139.69;5067985;28;20209;-77
2020/12/10 07:07:10;;;;;;;38.53;13.47;;;;;;;4.23;100.00;97139.88;5091577;28;20189;-78
2020/12/10 07:09:49;;;;;;;30.97;12.20;;;;;;;3.86;100.00;97142.59;5079996;28;20209;-78
2020/12/10 07:12:22;;;;;;;26.90;11.30;;;;;;;3.59;100.00;97141.38;5081995;28;20295;-75
2020/12/10 07:14:50;;;;;;;28.07;12.03;;;;;;;4.01;100.00;97146.06;5076086;28;20188;-74
2020/12/10 07:17:17;;;;;;;25.83;12.23;;;;;;;4.01;100.00;97154.00;5086589;28;20293;-76
2020/12/10 07:19:45;;;;;;;31.07;12.70;;;;;;;3.80;100.00;97148.56;5075088;28;20204;-75
2020/12/10 07:22:12;;;;;;;31.47;13.07;;;;;;;3.92;100.00;97149.78;5072301;28;20669;-76
2020/12/10 07:24:39;;;;;;;30.60;11.87;;;;;;;3.80;100.00;97148.56;5073793;28;20207;-76
2020/12/10 07:27:05;;;;;;;29.27;12.73;;;;;;;3.62;100.00;97148.09;5076153;28;20311;-76
2020/12/10 07:29:32;;;;;;;31.17;13.50;;;;;;;3.70;100.00;97148.84;5072535;28;20216;-76
2020/12/10 07:31:59;;;;;;;26.67;11.87;;;;;;;4.01;100.00;97146.88;5070380;28;20226;-76
2020/12/10 07:34:27;;;;;;;25.73;11.87;;;;;;;3.80;100.00;97145.94;5062425;28;20662;-76
2020/12/10 07:36:56;;;;;;;32.00;12.30;;;;;;;3.80;100.00;97156.50;5073793;28;20219;-79
2020/12/10 07:39:29;;;;;;;28.57;11.97;;;;;;;3.76;100.00;97153.41;5080210;28;20660;-75
2020/12/10 07:41:56;;;;;;;30.93;12.67;;;;;;;3.86;100.00;97159.25;5068600;28;20196;-75
2020/12/10 07:44:27;;;;;;;26.83;11.70;;;;;;;3.81;100.00;97150.25;5077931;28;20691;-76
2020/12/10 07:46:54;;;;;;;26.53;11.20;;;;;;;4.22;100.00;97154.09;5072510;28;20236;-76
2020/12/10 07:49:26;;;;;;;28.23;11.03;;;;;;;4.41;100.00;97145.59;5074734;28;20193;-77
2020/12/10 07:52:02;;;;;;;30.63;11.83;;;;;;;4.13;100.00;97152.53;5071741;28;20213;-73
2020/12/10 07:54:40;;;;;;;26.43;11.83;;;;;;;4.14;100.00;97141.81;5086457;28;20196;-77
2020/12/10 07:57:13;;;;;;;29.33;11.70;;;;;;;3.85;100.00;97140.94;5071812;28;20723;-75
2020/12/10 07:59:41;;;;;;;22.77;11.47;;;;;;;3.80;100.00;97143.31;5075076;28;21028;-78
2020/12/10 08:02:10;;;;;;;25.50;11.93;;;;;;;3.76;100.00;97144.69;5072676;28;20221;-79
2020/12/10 08:04:42;;;;;;;22.30;11.27;;;;;;;3.79;100.00;97149.59;5078201;28;20291;-78
2020/12/10 08:07:13;;;;;;;29.70;11.83;;;;;;;3.87;100.00;97145.03;5073017;28;20236;-78
2020/12/10 08:09:40;;;;;;;26.37;11.77;;;;;;;3.91;100.00;97137.59;5077787;28;20700;-75
2020/12/10 08:12:14;;;;;;;26.13;10.97;;;;;;;4.08;100.00;97145.19;5076573;28;20232;-75
2020/12/10 08:14:41;;;;;;;23.67;10.70;;;;;;;4.03;100.00;97144.06;5084782;28;20199;-75
2020/12/10 08:17:19;;;;;;;25.90;11.33;;;;;;;4.20;100.00;97141.06;5080878;28;20227;-75
2020/12/10 08:19:55;;;;;;;27.10;11.00;;;;;;;4.00;100.00;97149.69;5079910;28;20200;-75
2020/12/10 08:22:25;;;;;;;20.03;9.40;;;;;;;3.99;100.00;97146.25;5078414;28;20533;-76
2020/12/10 08:24:52;;;;;;;13.83;7.07;;;;;;;3.71;100.00;97139.94;5070011;28;20268;-76
2020/12/10 08:27:22;;;;;;;17.07;7.47;;;;;;;4.38;100.00;97141.53;5073310;28;20224;-76
2020/12/10 08:30:01;;;;;;;25.67;11.37;;;;;;;4.07;100.00;97132.16;5076131;28;20245;-75
2020/12/10 08:32:27;;;;;;;31.43;13.30;;;;;;;3.89;100.00;97134.31;5087561;28;20259;-76
2020/12/10 08:35:04;;;;;;;21.80;10.43;;;;;;;4.44;100.00;97132.03;5090459;28;20200;-77
2020/12/10 08:37:38;;;;;;;25.00;11.47;;;;;;;4.13;100.00;97140.16;5082627;28;20609;-73
2020/12/10 08:40:05;;;;;;;25.60;11.37;;;;;;;4.21;100.00;97141.91;5075631;28;20192;-77
2020/12/10 08:42:32;;;;;;;22.03;10.87;;;;;;;4.44;100.00;97130.22;5076892;28;20197;-75
2020/12/10 08:44:59;;;;;;;20.80;9.00;;;;;;;4.13;100.00;97140.16;5073762;28;20207;-76
2020/12/10 08:47:26;;;;;;;23.70;8.30;;;;;;;4.28;100.00;97134.88;5083949;28;20316;-76
2020/12/10 08:50:22;;;;;;;18.43;8.33;;;;;;;4.38;100.00;97138.88;5084864;28;20201;-76
2020/12/10 08:53:01;;;;;;;17.93;8.63;;;;;;;4.62;100.00;97143.84;5069632;28;20214;-75
2020/12/10 08:55:29;;;;;;;17.30;7.30;;;;;;;3.96;100.00;97148.44;5084485;28;20208;-77
2020/12/10 08:57:56;;;;;;;17.07;7.67;;;;;;;3.76;100.00;97144.69;5087500;28;20220;-77
2020/12/10 09:00:23;;;;;;;14.93;6.93;;;;;;;4.00;100.00;97145.25;5087210;28;20207;-76
2020/12/10 09:02:50;;;;;;;13.17;7.03;;;;;;;4.03;100.00;97144.91;5078054;28;21805;-76
2020/12/10 09:05:17;;;;;;;8.70;4.70;;;;;;;3.69;100.00;97149.84;5082673;28;20197;-75
2020/12/10 09:07:44;;;;;;;9.37;4.90;;;;;;;3.91;100.00;97151.59;5074668;28;20723;-75
2020/12/10 09:10:12;;;;;;;11.13;5.57;;;;;;;3.68;100.00;97150.84;5075032;28;20201;-79
2020/12/10 09:12:39;;;;;;;10.03;5.63;;;;;;;3.90;100.00;97154.41;5083092;28;20692;-77
2020/12/10 09:15:06;;;;;;;10.33;5.20;;;;;;;4.11;100.00;97147.44;5075973;28;20205;-76
2020/12/10 09:17:33;;;;;;;12.47;6.13;;;;;;;4.06;100.00;97147.16;5075835;28;20231;-76
2020/12/10 09:20:01;;;;;;;14.73;6.53;;;;;;;3.59;100.00;97144.00;5083798;28;20283;-75
2020/12/10 09:22:28;;;;;;;14.60;6.23;;;;;;;4.33;100.00;97135.97;5074156;28;20254;-76
2020/12/10 09:24:56;;;;;;;13.57;6.63;;;;;;;4.35;100.00;97136.59;5074726;28;20201;-75
2020/12/10 09:27:24;;;;;;;15.60;8.03;;;;;;;4.30;100.00;97136.34;5087459;28;20253;-77
2020/12/10 09:29:50;;;;;;;14.90;6.43;;;;;;;4.54;100.00;97127.28;5074212;28;20206;-75
2020/12/10 09:32:17;;;;;;;17.53;7.47;;;;;;;4.24;100.00;97134.44;5074314;28;20228;-74
2020/12/10 09:34:44;;;;;;;14.57;8.23;;;;;;;3.99;100.00;97130.41;5085534;28;20204;-73
2020/12/10 09:37:11;;;;;;;13.53;6.77;;;;;;;4.50;100.00;97129.47;5091688;28;20220;-74
2020/12/10 09:39:38;;;;;;;9.27;5.37;;;;;;;5.34;100.00;97121.63;5086153;28;20699;-76
2020/12/10 09:42:05;;;;;;;13.67;5.80;;;;;;;5.62;100.00;97119.03;5093187;28;20208;-75
2020/12/10 09:44:33;;;;;;;9.73;5.33;;;;;;;5.74;100.00;97126.25;5079034;28;20205;-83
2020/12/10 09:47:00;;;;;;;12.47;5.80;;;;;;;5.94;100.00;97121.94;5079957;28;20221;-78
2020/12/10 09:49:26;;;;;;;9.03;5.20;;;;;;;5.37;100.00;97123.06;5092175;28;20209;-75
2020/12/10 09:51:56;;;;;;;10.43;5.47;;;;;;;5.56;100.00;97115.34;5083976;28;20208;-75
2020/12/10 09:54:34;;;;;;;11.57;5.77;;;;;;;5.24;100.00;97115.03;5074556;28;20235;-74
2020/12/10 09:57:09;;;;;;;10.60;5.10;;;;;;;5.90;100.00;97111.94;5082420;28;20221;-73
2020/12/10 09:59:37;;;;;;;15.33;5.40;;;;;;;6.21;100.00;97109.69;5077900;28;20552;-72
2020/12/10 10:02:04;;;;;;;9.60;4.87;;;;;;;6.18;99.88;97113.53;5066701;28;20202;-73
2020/12/10 10:04:31;;;;;;;10.17;4.73;;;;;;;5.80;100.00;97120.25;5084588;28;20211;-73
2020/12/10 10:06:58;;;;;;;9.80;5.47;;;;;;;6.09;100.00;97114.72;5085503;28;20217;-74
2020/12/10 10:09:26;;;;;;;10.83;5.47;;;;;;;5.33;100.00;97117.34;5086558;28;20207;-76
2020/12/10 10:11:53;;;;;;;8.33;4.77;;;;;;;5.75;100.00;97113.84;5080980;28;20290;-79
2020/12/10 10:14:20;;;;;;;9.40;4.57;;;;;;;5.97;100.00;97115.44;5070914;28;20221;-74
2020/12/10 10:16:48;;;;;;;8.20;4.63;;;;;;;6.20;100.00;97114.16;5085607;28;20232;-74
2020/12/10 10:19:15;;;;;;;7.93;4.87;;;;;;;5.31;100.00;97113.25;5085821;28;20613;-77
2020/12/10 10:21:41;;;;;;;11.73;5.50;;;;;;;5.61;100.00;97109.44;5072758;28;20231;-74
2020/12/10 10:24:09;;;;;;;10.33;5.67;;;;;;;5.64;100.00;97114.38;5079033;28;20203;-74
2020/12/10 10:26:36;;;;;;;12.47;5.70;;;;;;;5.61;100.00;97101.50;5066221;28;20313;-76
2020/12/10 10:29:06;;;;;;;12.87;5.83;;;;;;;5.45;100.00;97104.44;5075482;28;20195;-77
2020/12/10 10:31:33;;;;;;;9.83;5.03;;;;;;;5.23;100.00;97108.13;5070062;28;20282;-75
2020/12/10 10:34:00;;;;;;;12.67;5.90;;;;;;;5.05;100.00;97108.56;5086305;28;20223;-78
2020/12/10 10:36:28;;;;;;;9.93;5.13;;;;;;;4.80;100.00;97104.63;5081234;28;20202;-80
2020/12/10 10:38:55;;;;;;;10.40;5.00;;;;;;;4.52;100.00;97103.69;5083291;28;20235;-78
2020/12/10 10:41:22;;;;;;;9.70;5.40;;;;;;;4.55;100.00;97108.63;5074407;28;20212;-75
2020/12/10 10:43:48;;;;;;;10.93;5.90;;;;;;;4.87;100.00;97094.94;5076134;28;20199;-75
2020/12/10 10:46:18;;;;;;;8.97;5.27;;;;;;;4.94;100.00;97101.13;5072639;28;20556;-75
2020/12/10 10:48:45;;;;;;;12.23;5.90;;;;;;;4.92;100.00;97100.47;5080108;28;20232;-77
2020/12/10 10:51:13;;;;;;;9.60;5.23;;;;;;;5.10;100.00;97090.31;5076628;28;20208;-77
2020/12/10 10:53:40;;;;;;;11.47;5.17;;;;;;;4.60;100.00;97090.38;5073721;28;20301;-74
2020/12/10 10:56:06;;;;;;;10.37;5.53;;;;;;;4.85;100.00;97096.13;5079558;28;20267;-74
2020/12/10 10:58:33;;;;;;;10.53;5.27;;;;;;;5.07;100.00;97090.66;5082514;28;21947;-75
2020/12/10 11:01:00;;;;;;;9.33;4.90;;;;;;;5.74;100.00;97085.75;5084896;28;20197;-75
2020/12/10 11:03:27;;;;;;;12.73;6.20;;;;;;;5.15;100.00;97093.19;5080215;28;20246;-76
2020/12/10 11:05:54;;;;;;;9.70;5.27;;;;;;;5.03;100.00;97091.25;5073035;28;20562;-76
2020/12/10 11:08:22;;;;;;;14.20;6.97;;;;;;;5.57;100.00;97081.72;5062821;28;20229;-75
2020/12/10 11:10:49;;;;;;;12.00;6.33;;;;;;;5.43;100.00;97074.72;5072495;28;20194;-75
2020/12/10 11:13:16;;;;;;;12.13;6.33;;;;;;;5.60;100.00;97079.53;5073157;28;21857;-78
2020/12/10 11:15:43;;;;;;;12.47;5.73;;;;;;;5.89;100.00;97078.53;5072802;28;20585;-79
2020/12/10 11:18:09;;;;;;;11.80;6.60;;;;;;;5.48;100.00;97080.25;5075985;28;20229;-76
2020/12/10 11:20:36;;;;;;;11.63;6.20;;;;;;;5.85;100.00;97086.03;5084320;28;20210;-76
2020/12/10 11:23:04;;;;;;;12.67;6.13;;;;;;;5.72;100.00;97080.63;5075770;28;20210;-75
2020/12/10 11:25:33;;;;;;;11.33;6.03;;;;;;;5.96;100.00;97082.88;5080956;28;20265;-74
2020/12/10 11:28:02;;;;;;;13.67;6.67;;;;;;;5.65;100.00;97093.00;5070112;28;20233;-74